sensor_id;sensor_type;location;lat;lon;timestamp;P1;durP1;ratioP1;P2;durP2;ratioP2
29352;SDS011;16344;50.364;8.944;2022-12-18T00:00:29;73.95;;;26.40;;
29352;SDS011;16344;50.364;8.944;2022-12-18T00:02:55;87.30;;;28.55;;
29352;SDS011;16344;50.364;8.944;2022-12-18T00:05:21;86.60;;;28.30;;
29352;SDS011;16344;50.364;8.944;2022-12-18T00:07:46;83.22;;;27.73;;
29352;SDS011;16344;50.364;8.944;2022-12-18T00:10:12;72.00;;;25.23;;
29352;SDS011;16344;50.364;8.944;2022-12-18T00:12:37;69.05;;;24.77;;
29352;SDS011;16344;50.364;8.944;2022-12-18T00:15:03;78.30;;;25.63;;
29352;SDS011;16344;50.364;8.944;2022-12-18T00:17:29;73.82;;;26.73;;
29352;SDS011;16344;50.364;8.944;2022-12-18T00:19:54;71.45;;;23.83;;
29352;SDS011;16344;50.364;8.944;2022-12-18T00:22:20;83.15;;;27.95;;
29352;SDS011;16344;50.364;8.944;2022-12-18T00:24:45;80.93;;;25.75;;
29352;SDS011;16344;50.364;8.944;2022-12-18T00:27:11;74.30;;;24.65;;
29352;SDS011;16344;50.364;8.944;2022-12-18T00:29:36;71.97;;;26.08;;
29352;SDS011;16344;50.364;8.944;2022-12-18T00:32:02;75.20;;;27.23;;
29352;SDS011;16344;50.364;8.944;2022-12-18T00:34:27;74.97;;;26.05;;
29352;SDS011;16344;50.364;8.944;2022-12-18T00:36:53;85.13;;;28.75;;
29352;SDS011;16344;50.364;8.944;2022-12-18T00:39:18;79.50;;;28.65;;
29352;SDS011;16344;50.364;8.944;2022-12-18T00:41:44;77.68;;;28.83;;
29352;SDS011;16344;50.364;8.944;2022-12-18T00:44:28;79.05;;;26.52;;
29352;SDS011;16344;50.364;8.944;2022-12-18T00:46:53;70.43;;;25.23;;
29352;SDS011;16344;50.364;8.944;2022-12-18T00:49:19;67.85;;;25.05;;
29352;SDS011;16344;50.364;8.944;2022-12-18T00:51:45;78.53;;;26.27;;
29352;SDS011;16344;50.364;8.944;2022-12-18T00:54:11;75.88;;;26.50;;
29352;SDS011;16344;50.364;8.944;2022-12-18T00:56:37;70.50;;;24.98;;
29352;SDS011;16344;50.364;8.944;2022-12-18T00:59:03;72.68;;;27.00;;
29352;SDS011;16344;50.364;8.944;2022-12-18T01:01:29;67.38;;;25.75;;
29352;SDS011;16344;50.364;8.944;2022-12-18T01:03:55;68.45;;;25.13;;
29352;SDS011;16344;50.364;8.944;2022-12-18T01:06:21;70.55;;;25.33;;
29352;SDS011;16344;50.364;8.944;2022-12-18T01:08:47;68.60;;;24.02;;
29352;SDS011;16344;50.364;8.944;2022-12-18T01:11:14;72.93;;;25.08;;
29352;SDS011;16344;50.364;8.944;2022-12-18T01:13:42;81.30;;;25.95;;
29352;SDS011;16344;50.364;8.944;2022-12-18T01:16:08;76.45;;;25.88;;
29352;SDS011;16344;50.364;8.944;2022-12-18T01:18:37;74.32;;;25.90;;
29352;SDS011;16344;50.364;8.944;2022-12-18T01:21:06;75.63;;;25.52;;
29352;SDS011;16344;50.364;8.944;2022-12-18T01:23:32;72.30;;;24.67;;
29352;SDS011;16344;50.364;8.944;2022-12-18T01:26:03;71.90;;;26.10;;
29352;SDS011;16344;50.364;8.944;2022-12-18T01:28:33;71.57;;;24.60;;
29352;SDS011;16344;50.364;8.944;2022-12-18T01:31:08;71.40;;;23.85;;
29352;SDS011;16344;50.364;8.944;2022-12-18T01:33:38;84.43;;;27.85;;
29352;SDS011;16344;50.364;8.944;2022-12-18T01:36:04;85.28;;;30.73;;
29352;SDS011;16344;50.364;8.944;2022-12-18T01:38:29;77.30;;;26.88;;
29352;SDS011;16344;50.364;8.944;2022-12-18T01:40:59;76.25;;;26.35;;
29352;SDS011;16344;50.364;8.944;2022-12-18T01:43:58;80.75;;;25.92;;
29352;SDS011;16344;50.364;8.944;2022-12-18T01:46:22;76.28;;;26.20;;
29352;SDS011;16344;50.364;8.944;2022-12-18T01:48:49;90.30;;;29.63;;
29352;SDS011;16344;50.364;8.944;2022-12-18T01:51:18;90.05;;;30.10;;
29352;SDS011;16344;50.364;8.944;2022-12-18T01:53:44;84.90;;;29.83;;
29352;SDS011;16344;50.364;8.944;2022-12-18T01:56:15;90.00;;;30.05;;
29352;SDS011;16344;50.364;8.944;2022-12-18T01:58:51;110.80;;;36.40;;
29352;SDS011;16344;50.364;8.944;2022-12-18T02:01:30;111.18;;;36.97;;
29352;SDS011;16344;50.364;8.944;2022-12-18T02:04:10;119.40;;;39.63;;
29352;SDS011;16344;50.364;8.944;2022-12-18T02:06:46;102.53;;;37.05;;
29352;SDS011;16344;50.364;8.944;2022-12-18T02:09:26;95.22;;;30.58;;
29352;SDS011;16344;50.364;8.944;2022-12-18T02:11:59;80.57;;;28.15;;
29352;SDS011;16344;50.364;8.944;2022-12-18T02:14:38;77.15;;;24.55;;
29352;SDS011;16344;50.364;8.944;2022-12-18T02:17:18;73.72;;;25.50;;
29352;SDS011;16344;50.364;8.944;2022-12-18T02:20:02;89.35;;;27.63;;
29352;SDS011;16344;50.364;8.944;2022-12-18T02:22:59;77.68;;;26.60;;
29352;SDS011;16344;50.364;8.944;2022-12-18T02:28:18;71.70;;;25.35;;
29352;SDS011;16344;50.364;8.944;2022-12-18T02:30:47;74.50;;;26.30;;
29352;SDS011;16344;50.364;8.944;2022-12-18T02:33:15;82.68;;;28.38;;
29352;SDS011;16344;50.364;8.944;2022-12-18T02:35:41;98.50;;;29.55;;
29352;SDS011;16344;50.364;8.944;2022-12-18T02:38:09;97.28;;;30.25;;
29352;SDS011;16344;50.364;8.944;2022-12-18T02:40:36;96.35;;;29.55;;
29352;SDS011;16344;50.364;8.944;2022-12-18T02:43:07;96.55;;;30.05;;
29352;SDS011;16344;50.364;8.944;2022-12-18T02:45:45;89.40;;;27.95;;
29352;SDS011;16344;50.364;8.944;2022-12-18T02:48:35;83.03;;;27.20;;
29352;SDS011;16344;50.364;8.944;2022-12-18T02:51:03;84.07;;;28.02;;
29352;SDS011;16344;50.364;8.944;2022-12-18T02:53:53;73.88;;;25.05;;
29352;SDS011;16344;50.364;8.944;2022-12-18T02:56:55;85.95;;;27.40;;
29352;SDS011;16344;50.364;8.944;2022-12-18T02:59:33;70.47;;;24.63;;
29352;SDS011;16344;50.364;8.944;2022-12-18T03:04:50;157.05;;;41.58;;
29352;SDS011;16344;50.364;8.944;2022-12-18T03:07:26;100.80;;;33.28;;
29352;SDS011;16344;50.364;8.944;2022-12-18T03:09:58;83.30;;;26.50;;
29352;SDS011;16344;50.364;8.944;2022-12-18T03:15:13;88.50;;;29.02;;
29352;SDS011;16344;50.364;8.944;2022-12-18T03:17:48;83.88;;;28.48;;
29352;SDS011;16344;50.364;8.944;2022-12-18T03:20:20;76.38;;;27.17;;
29352;SDS011;16344;50.364;8.944;2022-12-18T03:22:49;89.53;;;28.90;;
29352;SDS011;16344;50.364;8.944;2022-12-18T03:25:18;135.90;;;36.78;;
29352;SDS011;16344;50.364;8.944;2022-12-18T03:27:46;117.43;;;35.88;;
29352;SDS011;16344;50.364;8.944;2022-12-18T03:30:15;95.15;;;29.48;;
29352;SDS011;16344;50.364;8.944;2022-12-18T03:32:44;76.82;;;25.58;;
29352;SDS011;16344;50.364;8.944;2022-12-18T03:35:19;87.63;;;30.55;;
29352;SDS011;16344;50.364;8.944;2022-12-18T03:37:48;82.40;;;26.50;;
29352;SDS011;16344;50.364;8.944;2022-12-18T03:40:14;84.85;;;28.60;;
29352;SDS011;16344;50.364;8.944;2022-12-18T03:45:24;94.05;;;26.52;;
29352;SDS011;16344;50.364;8.944;2022-12-18T03:47:58;73.93;;;25.20;;
29352;SDS011;16344;50.364;8.944;2022-12-18T03:55:55;103.20;;;36.07;;
29352;SDS011;16344;50.364;8.944;2022-12-18T03:58:24;86.97;;;28.98;;
29352;SDS011;16344;50.364;8.944;2022-12-18T04:00:52;80.95;;;27.38;;
29352;SDS011;16344;50.364;8.944;2022-12-18T04:03:21;73.72;;;26.23;;
29352;SDS011;16344;50.364;8.944;2022-12-18T04:05:49;79.75;;;28.17;;
29352;SDS011;16344;50.364;8.944;2022-12-18T04:08:17;80.22;;;27.30;;
29352;SDS011;16344;50.364;8.944;2022-12-18T04:10:43;80.28;;;29.17;;
29352;SDS011;16344;50.364;8.944;2022-12-18T04:13:09;95.70;;;32.45;;
29352;SDS011;16344;50.364;8.944;2022-12-18T04:15:35;81.82;;;31.15;;
29352;SDS011;16344;50.364;8.944;2022-12-18T04:18:02;89.85;;;29.00;;
29352;SDS011;16344;50.364;8.944;2022-12-18T04:20:27;93.70;;;31.17;;
29352;SDS011;16344;50.364;8.944;2022-12-18T04:22:53;89.28;;;26.75;;
29352;SDS011;16344;50.364;8.944;2022-12-18T04:25:18;79.28;;;28.58;;
29352;SDS011;16344;50.364;8.944;2022-12-18T04:27:44;80.25;;;27.85;;
29352;SDS011;16344;50.364;8.944;2022-12-18T04:30:10;71.60;;;25.48;;
29352;SDS011;16344;50.364;8.944;2022-12-18T04:32:35;66.68;;;24.15;;
29352;SDS011;16344;50.364;8.944;2022-12-18T04:35:01;72.32;;;25.50;;
29352;SDS011;16344;50.364;8.944;2022-12-18T04:37:29;74.68;;;24.70;;
29352;SDS011;16344;50.364;8.944;2022-12-18T04:39:54;69.55;;;24.95;;
29352;SDS011;16344;50.364;8.944;2022-12-18T04:42:20;81.93;;;27.70;;
29352;SDS011;16344;50.364;8.944;2022-12-18T04:44:45;87.05;;;28.45;;
29352;SDS011;16344;50.364;8.944;2022-12-18T04:47:11;71.93;;;26.33;;
29352;SDS011;16344;50.364;8.944;2022-12-18T04:49:37;84.72;;;29.00;;
29352;SDS011;16344;50.364;8.944;2022-12-18T04:52:02;72.18;;;24.50;;
29352;SDS011;16344;50.364;8.944;2022-12-18T04:54:28;77.63;;;26.30;;
29352;SDS011;16344;50.364;8.944;2022-12-18T04:56:53;83.97;;;27.48;;
29352;SDS011;16344;50.364;8.944;2022-12-18T04:59:19;66.03;;;23.77;;
29352;SDS011;16344;50.364;8.944;2022-12-18T05:01:44;73.20;;;24.70;;
29352;SDS011;16344;50.364;8.944;2022-12-18T05:04:10;71.13;;;22.17;;
29352;SDS011;16344;50.364;8.944;2022-12-18T05:06:36;68.22;;;23.73;;
29352;SDS011;16344;50.364;8.944;2022-12-18T05:09:01;68.18;;;24.30;;
29352;SDS011;16344;50.364;8.944;2022-12-18T05:11:27;70.60;;;23.45;;
29352;SDS011;16344;50.364;8.944;2022-12-18T05:13:53;70.88;;;23.88;;
29352;SDS011;16344;50.364;8.944;2022-12-18T05:16:18;71.75;;;24.05;;
29352;SDS011;16344;50.364;8.944;2022-12-18T05:18:44;75.20;;;22.67;;
29352;SDS011;16344;50.364;8.944;2022-12-18T05:21:09;70.63;;;21.67;;
29352;SDS011;16344;50.364;8.944;2022-12-18T05:23:35;64.32;;;22.80;;
29352;SDS011;16344;50.364;8.944;2022-12-18T05:26:02;71.75;;;20.80;;
29352;SDS011;16344;50.364;8.944;2022-12-18T05:28:30;61.40;;;22.27;;
29352;SDS011;16344;50.364;8.944;2022-12-18T05:30:58;64.78;;;22.38;;
29352;SDS011;16344;50.364;8.944;2022-12-18T05:33:26;72.03;;;21.42;;
29352;SDS011;16344;50.364;8.944;2022-12-18T05:35:57;65.35;;;21.20;;
29352;SDS011;16344;50.364;8.944;2022-12-18T05:38:27;56.28;;;20.27;;
29352;SDS011;16344;50.364;8.944;2022-12-18T05:40:54;56.05;;;19.00;;
29352;SDS011;16344;50.364;8.944;2022-12-18T05:43:20;61.85;;;19.80;;
29352;SDS011;16344;50.364;8.944;2022-12-18T05:45:49;64.05;;;20.85;;
29352;SDS011;16344;50.364;8.944;2022-12-18T05:48:15;56.45;;;19.88;;
29352;SDS011;16344;50.364;8.944;2022-12-18T05:50:42;62.33;;;20.85;;
29352;SDS011;16344;50.364;8.944;2022-12-18T05:53:10;62.53;;;20.85;;
29352;SDS011;16344;50.364;8.944;2022-12-18T05:55:36;65.40;;;21.92;;
29352;SDS011;16344;50.364;8.944;2022-12-18T05:58:03;58.80;;;22.08;;
29352;SDS011;16344;50.364;8.944;2022-12-18T06:00:31;62.03;;;21.30;;
29352;SDS011;16344;50.364;8.944;2022-12-18T06:03:00;59.13;;;19.60;;
29352;SDS011;16344;50.364;8.944;2022-12-18T06:05:26;68.15;;;21.30;;
29352;SDS011;16344;50.364;8.944;2022-12-18T06:07:52;63.63;;;20.92;;
29352;SDS011;16344;50.364;8.944;2022-12-18T06:10:18;60.72;;;21.58;;
29352;SDS011;16344;50.364;8.944;2022-12-18T06:12:43;58.03;;;21.75;;
29352;SDS011;16344;50.364;8.944;2022-12-18T06:15:09;61.42;;;20.83;;
29352;SDS011;16344;50.364;8.944;2022-12-18T06:17:35;62.50;;;20.52;;
29352;SDS011;16344;50.364;8.944;2022-12-18T06:20:01;69.40;;;23.70;;
29352;SDS011;16344;50.364;8.944;2022-12-18T06:22:26;65.18;;;23.25;;
29352;SDS011;16344;50.364;8.944;2022-12-18T06:24:52;84.30;;;28.48;;
29352;SDS011;16344;50.364;8.944;2022-12-18T06:27:18;61.22;;;24.40;;
29352;SDS011;16344;50.364;8.944;2022-12-18T06:29:43;64.30;;;22.20;;
29352;SDS011;16344;50.364;8.944;2022-12-18T06:32:09;54.22;;;21.48;;
29352;SDS011;16344;50.364;8.944;2022-12-18T06:34:36;64.38;;;21.42;;
29352;SDS011;16344;50.364;8.944;2022-12-18T06:37:02;59.90;;;20.75;;
29352;SDS011;16344;50.364;8.944;2022-12-18T06:39:28;58.72;;;20.67;;
29352;SDS011;16344;50.364;8.944;2022-12-18T06:41:54;61.85;;;20.77;;
29352;SDS011;16344;50.364;8.944;2022-12-18T06:44:19;62.00;;;23.08;;
29352;SDS011;16344;50.364;8.944;2022-12-18T06:46:45;62.80;;;20.92;;
29352;SDS011;16344;50.364;8.944;2022-12-18T06:49:11;59.45;;;21.77;;
29352;SDS011;16344;50.364;8.944;2022-12-18T06:51:37;60.67;;;22.63;;
29352;SDS011;16344;50.364;8.944;2022-12-18T06:54:02;70.47;;;22.50;;
29352;SDS011;16344;50.364;8.944;2022-12-18T06:56:28;70.43;;;22.90;;
29352;SDS011;16344;50.364;8.944;2022-12-18T06:58:54;67.88;;;22.13;;
29352;SDS011;16344;50.364;8.944;2022-12-18T07:01:19;69.75;;;25.33;;
29352;SDS011;16344;50.364;8.944;2022-12-18T07:03:45;73.85;;;25.30;;
29352;SDS011;16344;50.364;8.944;2022-12-18T07:06:15;61.22;;;23.75;;
29352;SDS011;16344;50.364;8.944;2022-12-18T07:08:42;83.82;;;26.42;;
29352;SDS011;16344;50.364;8.944;2022-12-18T07:11:08;68.43;;;23.13;;
29352;SDS011;16344;50.364;8.944;2022-12-18T07:13:33;64.15;;;23.55;;
29352;SDS011;16344;50.364;8.944;2022-12-18T07:16:03;60.28;;;23.75;;
29352;SDS011;16344;50.364;8.944;2022-12-18T07:18:33;73.70;;;26.60;;
29352;SDS011;16344;50.364;8.944;2022-12-18T07:21:01;62.50;;;23.35;;
29352;SDS011;16344;50.364;8.944;2022-12-18T07:23:28;56.22;;;22.40;;
29352;SDS011;16344;50.364;8.944;2022-12-18T07:25:54;72.10;;;25.20;;
29352;SDS011;16344;50.364;8.944;2022-12-18T07:28:19;90.47;;;34.75;;
29352;SDS011;16344;50.364;8.944;2022-12-18T07:30:45;160.02;;;56.53;;
29352;SDS011;16344;50.364;8.944;2022-12-18T07:33:10;88.88;;;35.85;;
29352;SDS011;16344;50.364;8.944;2022-12-18T07:35:37;108.22;;;40.78;;
29352;SDS011;16344;50.364;8.944;2022-12-18T07:38:02;203.65;;;64.28;;
29352;SDS011;16344;50.364;8.944;2022-12-18T07:40:28;246.93;;;78.32;;
29352;SDS011;16344;50.364;8.944;2022-12-18T07:42:53;275.08;;;91.65;;
29352;SDS011;16344;50.364;8.944;2022-12-18T07:45:19;185.63;;;60.80;;
29352;SDS011;16344;50.364;8.944;2022-12-18T07:47:44;123.38;;;43.25;;
29352;SDS011;16344;50.364;8.944;2022-12-18T07:50:10;112.35;;;37.30;;
29352;SDS011;16344;50.364;8.944;2022-12-18T07:52:35;102.40;;;38.80;;
29352;SDS011;16344;50.364;8.944;2022-12-18T07:55:01;70.70;;;21.33;;
29352;SDS011;16344;50.364;8.944;2022-12-18T07:57:27;66.05;;;22.02;;
29352;SDS011;16344;50.364;8.944;2022-12-18T07:59:52;57.58;;;21.70;;
29352;SDS011;16344;50.364;8.944;2022-12-18T08:02:18;58.88;;;20.95;;
29352;SDS011;16344;50.364;8.944;2022-12-18T08:04:43;56.20;;;21.17;;
29352;SDS011;16344;50.364;8.944;2022-12-18T08:07:09;63.97;;;22.45;;
29352;SDS011;16344;50.364;8.944;2022-12-18T08:09:34;73.03;;;24.70;;
29352;SDS011;16344;50.364;8.944;2022-12-18T08:12:00;63.70;;;22.00;;
29352;SDS011;16344;50.364;8.944;2022-12-18T08:14:25;69.75;;;25.50;;
29352;SDS011;16344;50.364;8.944;2022-12-18T08:16:51;70.80;;;27.73;;
29352;SDS011;16344;50.364;8.944;2022-12-18T08:19:16;61.30;;;22.98;;
29352;SDS011;16344;50.364;8.944;2022-12-18T08:21:42;54.58;;;20.88;;
29352;SDS011;16344;50.364;8.944;2022-12-18T08:24:08;61.50;;;24.38;;
29352;SDS011;16344;50.364;8.944;2022-12-18T08:26:34;58.92;;;23.02;;
29352;SDS011;16344;50.364;8.944;2022-12-18T08:29:00;74.65;;;29.77;;
29352;SDS011;16344;50.364;8.944;2022-12-18T08:31:26;94.68;;;42.30;;
29352;SDS011;16344;50.364;8.944;2022-12-18T08:33:54;86.95;;;37.75;;
29352;SDS011;16344;50.364;8.944;2022-12-18T08:36:20;120.10;;;58.13;;
29352;SDS011;16344;50.364;8.944;2022-12-18T08:38:46;281.55;;;90.70;;
29352;SDS011;16344;50.364;8.944;2022-12-18T08:41:13;256.88;;;72.65;;
29352;SDS011;16344;50.364;8.944;2022-12-18T08:43:40;359.50;;;96.72;;
29352;SDS011;16344;50.364;8.944;2022-12-18T08:46:25;113.55;;;39.78;;
29352;SDS011;16344;50.364;8.944;2022-12-18T08:48:52;175.07;;;57.90;;
29352;SDS011;16344;50.364;8.944;2022-12-18T08:51:19;88.43;;;32.20;;
29352;SDS011;16344;50.364;8.944;2022-12-18T08:53:44;83.72;;;29.23;;
29352;SDS011;16344;50.364;8.944;2022-12-18T08:56:10;62.65;;;22.35;;
29352;SDS011;16344;50.364;8.944;2022-12-18T08:58:37;55.55;;;21.60;;
29352;SDS011;16344;50.364;8.944;2022-12-18T09:01:03;60.53;;;22.73;;
29352;SDS011;16344;50.364;8.944;2022-12-18T09:03:29;57.50;;;21.63;;
29352;SDS011;16344;50.364;8.944;2022-12-18T09:05:55;69.10;;;25.73;;
29352;SDS011;16344;50.364;8.944;2022-12-18T09:08:21;51.38;;;17.90;;
29352;SDS011;16344;50.364;8.944;2022-12-18T09:10:47;71.28;;;25.63;;
29352;SDS011;16344;50.364;8.944;2022-12-18T09:13:14;128.02;;;43.05;;
29352;SDS011;16344;50.364;8.944;2022-12-18T09:15:41;78.15;;;28.40;;
29352;SDS011;16344;50.364;8.944;2022-12-18T09:18:07;79.90;;;25.40;;
29352;SDS011;16344;50.364;8.944;2022-12-18T09:20:34;75.25;;;25.98;;
29352;SDS011;16344;50.364;8.944;2022-12-18T09:23:00;62.17;;;23.25;;
29352;SDS011;16344;50.364;8.944;2022-12-18T09:25:26;64.22;;;23.20;;
29352;SDS011;16344;50.364;8.944;2022-12-18T09:27:56;58.08;;;20.83;;
29352;SDS011;16344;50.364;8.944;2022-12-18T09:30:22;54.67;;;20.52;;
29352;SDS011;16344;50.364;8.944;2022-12-18T09:32:47;57.13;;;21.08;;
29352;SDS011;16344;50.364;8.944;2022-12-18T09:35:13;62.75;;;20.67;;
29352;SDS011;16344;50.364;8.944;2022-12-18T09:37:38;49.00;;;19.08;;
29352;SDS011;16344;50.364;8.944;2022-12-18T09:40:04;44.78;;;18.65;;
29352;SDS011;16344;50.364;8.944;2022-12-18T09:42:30;46.85;;;19.17;;
29352;SDS011;16344;50.364;8.944;2022-12-18T09:44:56;51.83;;;19.10;;
29352;SDS011;16344;50.364;8.944;2022-12-18T09:47:24;54.75;;;20.33;;
29352;SDS011;16344;50.364;8.944;2022-12-18T09:49:55;48.05;;;18.80;;
29352;SDS011;16344;50.364;8.944;2022-12-18T09:52:25;57.17;;;20.67;;
29352;SDS011;16344;50.364;8.944;2022-12-18T09:55:03;49.80;;;18.48;;
29352;SDS011;16344;50.364;8.944;2022-12-18T09:57:37;52.03;;;21.08;;
29352;SDS011;16344;50.364;8.944;2022-12-18T10:00:20;56.45;;;20.38;;
29352;SDS011;16344;50.364;8.944;2022-12-18T10:02:47;59.92;;;22.77;;
29352;SDS011;16344;50.364;8.944;2022-12-18T10:05:16;51.50;;;18.85;;
29352;SDS011;16344;50.364;8.944;2022-12-18T10:13:48;54.00;;;21.45;;
29352;SDS011;16344;50.364;8.944;2022-12-18T10:16:56;56.72;;;20.27;;
29352;SDS011;16344;50.364;8.944;2022-12-18T10:19:37;58.30;;;22.77;;
29352;SDS011;16344;50.364;8.944;2022-12-18T10:22:13;56.88;;;22.45;;
29352;SDS011;16344;50.364;8.944;2022-12-18T10:25:02;67.65;;;26.15;;
29352;SDS011;16344;50.364;8.944;2022-12-18T10:27:45;70.22;;;26.70;;
29352;SDS011;16344;50.364;8.944;2022-12-18T10:30:15;62.05;;;25.92;;
29352;SDS011;16344;50.364;8.944;2022-12-18T10:32:42;70.95;;;25.40;;
29352;SDS011;16344;50.364;8.944;2022-12-18T10:35:11;67.75;;;27.45;;
29352;SDS011;16344;50.364;8.944;2022-12-18T10:37:59;66.60;;;26.05;;
29352;SDS011;16344;50.364;8.944;2022-12-18T10:40:55;59.70;;;23.50;;
29352;SDS011;16344;50.364;8.944;2022-12-18T10:43:32;64.60;;;26.35;;
29352;SDS011;16344;50.364;8.944;2022-12-18T10:46:04;62.28;;;24.15;;
29352;SDS011;16344;50.364;8.944;2022-12-18T10:48:31;67.93;;;27.83;;
29352;SDS011;16344;50.364;8.944;2022-12-18T10:50:58;63.90;;;26.98;;
29352;SDS011;16344;50.364;8.944;2022-12-18T10:53:26;75.72;;;28.42;;
29352;SDS011;16344;50.364;8.944;2022-12-18T10:55:55;64.18;;;26.52;;
29352;SDS011;16344;50.364;8.944;2022-12-18T10:58:32;67.63;;;26.48;;
29352;SDS011;16344;50.364;8.944;2022-12-18T11:01:12;76.25;;;27.50;;
29352;SDS011;16344;50.364;8.944;2022-12-18T11:06:15;73.95;;;28.83;;
29352;SDS011;16344;50.364;8.944;2022-12-18T11:09:33;76.63;;;30.60;;
29352;SDS011;16344;50.364;8.944;2022-12-18T11:11:52;72.13;;;29.02;;
29352;SDS011;16344;50.364;8.944;2022-12-18T11:14:21;65.20;;;27.95;;
29352;SDS011;16344;50.364;8.944;2022-12-18T11:16:52;79.72;;;31.05;;
29352;SDS011;16344;50.364;8.944;2022-12-18T11:21:49;79.55;;;32.00;;
29352;SDS011;16344;50.364;8.944;2022-12-18T11:27:00;80.75;;;30.63;;
29352;SDS011;16344;50.364;8.944;2022-12-18T11:29:30;75.70;;;32.40;;
29352;SDS011;16344;50.364;8.944;2022-12-18T11:34:45;75.97;;;29.50;;
29352;SDS011;16344;50.364;8.944;2022-12-18T11:37:14;75.97;;;31.17;;
29352;SDS011;16344;50.364;8.944;2022-12-18T11:39:55;84.70;;;31.95;;
29352;SDS011;16344;50.364;8.944;2022-12-18T11:42:32;83.20;;;31.45;;
29352;SDS011;16344;50.364;8.944;2022-12-18T11:45:28;86.70;;;34.25;;
29352;SDS011;16344;50.364;8.944;2022-12-18T11:47:57;87.40;;;32.67;;
29352;SDS011;16344;50.364;8.944;2022-12-18T11:50:46;83.30;;;33.35;;
29352;SDS011;16344;50.364;8.944;2022-12-18T11:53:16;93.30;;;33.85;;
29352;SDS011;16344;50.364;8.944;2022-12-18T12:01:19;90.57;;;33.17;;
29352;SDS011;16344;50.364;8.944;2022-12-18T12:04:38;89.97;;;35.33;;
29352;SDS011;16344;50.364;8.944;2022-12-18T12:29:13;80.03;;;29.42;;
29352;SDS011;16344;50.364;8.944;2022-12-18T12:38:16;78.82;;;31.48;;
29352;SDS011;16344;50.364;8.944;2022-12-18T12:40:47;79.45;;;30.35;;
29352;SDS011;16344;50.364;8.944;2022-12-18T12:43:24;77.20;;;28.15;;
29352;SDS011;16344;50.364;8.944;2022-12-18T12:46:10;75.88;;;26.65;;
29352;SDS011;16344;50.364;8.944;2022-12-18T12:48:42;77.85;;;27.40;;
29352;SDS011;16344;50.364;8.944;2022-12-18T12:53:43;73.47;;;26.50;;
29352;SDS011;16344;50.364;8.944;2022-12-18T12:56:10;94.47;;;29.20;;
29352;SDS011;16344;50.364;8.944;2022-12-18T12:58:45;82.70;;;26.90;;
29352;SDS011;16344;50.364;8.944;2022-12-18T13:01:36;87.57;;;31.00;;
29352;SDS011;16344;50.364;8.944;2022-12-18T13:04:15;82.05;;;28.38;;
29352;SDS011;16344;50.364;8.944;2022-12-18T13:09:23;92.72;;;29.10;;
29352;SDS011;16344;50.364;8.944;2022-12-18T13:11:49;86.68;;;31.45;;
29352;SDS011;16344;50.364;8.944;2022-12-18T13:14:37;97.95;;;32.65;;
29352;SDS011;16344;50.364;8.944;2022-12-18T13:19:48;83.97;;;29.08;;
29352;SDS011;16344;50.364;8.944;2022-12-18T13:22:28;96.95;;;32.33;;
29352;SDS011;16344;50.364;8.944;2022-12-18T13:24:58;99.88;;;35.05;;
29352;SDS011;16344;50.364;8.944;2022-12-18T13:45:49;115.15;;;34.08;;
29352;SDS011;16344;50.364;8.944;2022-12-18T13:48:31;123.15;;;38.20;;
29352;SDS011;16344;50.364;8.944;2022-12-18T13:51:05;131.98;;;43.38;;
29352;SDS011;16344;50.364;8.944;2022-12-18T13:53:38;130.45;;;42.60;;
29352;SDS011;16344;50.364;8.944;2022-12-18T13:56:09;156.48;;;52.40;;
29352;SDS011;16344;50.364;8.944;2022-12-18T13:58:44;80.35;;;29.33;;
29352;SDS011;16344;50.364;8.944;2022-12-18T14:01:21;135.02;;;42.00;;
29352;SDS011;16344;50.364;8.944;2022-12-18T14:03:47;91.25;;;32.22;;
29352;SDS011;16344;50.364;8.944;2022-12-18T14:06:13;106.25;;;36.65;;
29352;SDS011;16344;50.364;8.944;2022-12-18T14:08:40;106.75;;;39.40;;
29352;SDS011;16344;50.364;8.944;2022-12-18T14:11:07;106.13;;;34.70;;
29352;SDS011;16344;50.364;8.944;2022-12-18T14:13:45;100.63;;;33.05;;
29352;SDS011;16344;50.364;8.944;2022-12-18T14:16:12;100.75;;;37.67;;
29352;SDS011;16344;50.364;8.944;2022-12-18T14:18:48;95.18;;;32.58;;
29352;SDS011;16344;50.364;8.944;2022-12-18T14:21:20;95.55;;;32.25;;
29352;SDS011;16344;50.364;8.944;2022-12-18T14:23:48;107.57;;;35.63;;
29352;SDS011;16344;50.364;8.944;2022-12-18T14:26:19;106.75;;;36.75;;
29352;SDS011;16344;50.364;8.944;2022-12-18T14:28:45;97.65;;;34.00;;
29352;SDS011;16344;50.364;8.944;2022-12-18T14:31:18;90.72;;;32.15;;
29352;SDS011;16344;50.364;8.944;2022-12-18T14:33:45;97.10;;;36.05;;
29352;SDS011;16344;50.364;8.944;2022-12-18T14:36:18;97.50;;;33.13;;
29352;SDS011;16344;50.364;8.944;2022-12-18T14:38:52;84.40;;;30.23;;
29352;SDS011;16344;50.364;8.944;2022-12-18T14:41:19;107.93;;;35.33;;
29352;SDS011;16344;50.364;8.944;2022-12-18T14:43:47;107.22;;;33.55;;
29352;SDS011;16344;50.364;8.944;2022-12-18T14:46:28;105.95;;;33.53;;
29352;SDS011;16344;50.364;8.944;2022-12-18T14:48:57;92.43;;;31.48;;
29352;SDS011;16344;50.364;8.944;2022-12-18T14:51:26;104.47;;;35.45;;
29352;SDS011;16344;50.364;8.944;2022-12-18T14:53:57;110.43;;;38.78;;
29352;SDS011;16344;50.364;8.944;2022-12-18T14:58:54;96.93;;;34.05;;
29352;SDS011;16344;50.364;8.944;2022-12-18T15:04:35;103.90;;;38.75;;
29352;SDS011;16344;50.364;8.944;2022-12-18T15:09:36;109.82;;;36.65;;
29352;SDS011;16344;50.364;8.944;2022-12-18T15:12:03;110.03;;;38.70;;
29352;SDS011;16344;50.364;8.944;2022-12-18T15:17:26;109.32;;;36.50;;
29352;SDS011;16344;50.364;8.944;2022-12-18T15:19:52;94.85;;;31.50;;
29352;SDS011;16344;50.364;8.944;2022-12-18T15:22:27;98.70;;;34.38;;
29352;SDS011;16344;50.364;8.944;2022-12-18T15:24:55;96.55;;;31.65;;
29352;SDS011;16344;50.364;8.944;2022-12-18T15:27:24;85.95;;;30.38;;
29352;SDS011;16344;50.364;8.944;2022-12-18T15:30:16;91.60;;;31.67;;
29352;SDS011;16344;50.364;8.944;2022-12-18T15:32:43;87.10;;;29.70;;
29352;SDS011;16344;50.364;8.944;2022-12-18T15:35:13;103.95;;;33.65;;
29352;SDS011;16344;50.364;8.944;2022-12-18T15:37:42;92.03;;;32.60;;
29352;SDS011;16344;50.364;8.944;2022-12-18T15:40:14;106.47;;;34.45;;
29352;SDS011;16344;50.364;8.944;2022-12-18T15:42:44;105.97;;;32.78;;
29352;SDS011;16344;50.364;8.944;2022-12-18T15:45:30;132.00;;;48.05;;
29352;SDS011;16344;50.364;8.944;2022-12-18T15:47:56;101.50;;;34.75;;
29352;SDS011;16344;50.364;8.944;2022-12-18T15:50:21;88.70;;;32.45;;
29352;SDS011;16344;50.364;8.944;2022-12-18T15:52:48;89.88;;;31.50;;
29352;SDS011;16344;50.364;8.944;2022-12-18T15:55:16;92.65;;;32.55;;
29352;SDS011;16344;50.364;8.944;2022-12-18T15:58:03;92.32;;;31.98;;
29352;SDS011;16344;50.364;8.944;2022-12-18T16:00:33;86.82;;;31.10;;
29352;SDS011;16344;50.364;8.944;2022-12-18T16:03:00;94.63;;;31.63;;
29352;SDS011;16344;50.364;8.944;2022-12-18T16:05:26;83.95;;;30.30;;
29352;SDS011;16344;50.364;8.944;2022-12-18T16:07:52;98.88;;;32.53;;
29352;SDS011;16344;50.364;8.944;2022-12-18T16:10:18;95.07;;;31.45;;
29352;SDS011;16344;50.364;8.944;2022-12-18T16:12:44;95.85;;;32.15;;
29352;SDS011;16344;50.364;8.944;2022-12-18T16:15:11;89.85;;;31.85;;
29352;SDS011;16344;50.364;8.944;2022-12-18T16:17:39;88.07;;;32.05;;